Time;durP1;ratioP1;P1;durP2;ratioP2;P2;SDS_P1;SDS_P2;PMS_P1;PMS_P2;Temp;Humidity;BMP_temperature;BMP_pressure;BME280_temperature;BME280_humidity;BME280_pressure;Samples;Min_cycle;Max_cycle;Signal;HPM_P1;HPM_P2
2021/11/23 00:05:24;;;;;;;18.63;6.75;;;3.50;99.90;;;;;;5522471;23;20057;-96
2021/11/23 00:07:50;;;;;;;16.75;7.13;;;3.50;99.90;;;;;;4995638;28;20084;-95
2021/11/23 00:10:17;;;;;;;21.05;7.25;;;3.40;99.90;;;;;;4977272;28;20038;-95
2021/11/23 00:12:45;;;;;;;13.52;6.20;;;3.40;99.90;;;;;;4994921;28;20054;-96
2021/11/23 00:15:12;;;;;;;13.52;5.60;;;3.30;99.90;;;;;;4995595;28;20027;-95
2021/11/23 00:17:43;;;;;;;14.77;6.45;;;3.30;99.90;;;;;;4993898;28;20030;-95
2021/11/23 00:20:09;;;;;;;21.50;6.70;;;3.40;99.90;;;;;;4994520;28;20026;-95
2021/11/23 00:22:39;;;;;;;17.08;6.63;;;3.30;99.90;;;;;;4994308;28;20046;-95
2021/11/23 00:25:06;;;;;;;15.60;6.80;;;3.40;99.90;;;;;;5004704;28;20034;-95
2021/11/23 00:27:36;;;;;;;17.70;6.35;;;3.30;99.90;;;;;;5020586;28;20022;-96
2021/11/23 00:30:02;;;;;;;16.55;6.35;;;3.40;99.90;;;;;;5002498;28;20037;-94
2021/11/23 00:32:29;;;;;;;13.70;6.18;;;3.40;99.90;;;;;;5034058;28;20030;-95
2021/11/23 00:34:56;;;;;;;13.18;5.88;;;3.40;99.90;;;;;;5016338;28;20040;-94
2021/11/23 00:37:32;;;;;;;13.77;5.57;;;3.40;99.90;;;;;;5016270;28;20040;-94
2021/11/23 00:40:02;;;;;;;15.00;6.18;;;3.40;99.90;;;;;;5016285;28;20022;-95
2021/11/23 00:42:30;;;;;;;14.77;6.45;;;3.50;99.90;;;;;;5001129;28;20033;-96
2021/11/23 00:44:56;;;;;;;12.70;6.10;;;3.40;99.90;;;;;;4998991;28;20042;-96
2021/11/23 00:47:23;;;;;;;27.58;7.72;;;3.50;99.90;;;;;;5003097;28;20170;-95
2021/11/23 00:49:51;;;;;;;21.00;7.40;;;3.50;99.90;;;;;;4986356;28;20010;-95
2021/11/23 00:52:20;;;;;;;21.08;7.95;;;3.50;99.90;;;;;;5017028;28;20033;-95
2021/11/23 00:54:49;;;;;;;23.83;7.78;;;3.50;99.90;;;;;;5014741;28;20102;-94
2021/11/23 00:57:19;;;;;;;19.35;6.47;;;3.50;99.90;;;;;;5015453;28;20110;-96
2021/11/23 00:59:45;;;;;;;19.40;6.75;;;3.50;99.90;;;;;;5011395;28;20352;-95
2021/11/23 01:02:11;;;;;;;17.98;6.22;;;3.50;99.90;;;;;;5009993;28;20030;-95
2021/11/23 01:04:40;;;;;;;15.65;6.15;;;3.40;99.90;;;;;;4990350;28;20038;-94
2021/11/23 01:07:14;;;;;;;15.25;5.82;;;3.40;99.90;;;;;;5032988;28;20034;-95
2021/11/23 01:09:41;;;;;;;14.50;5.80;;;3.40;99.90;;;;;;5015282;28;20030;-95
2021/11/23 01:12:07;;;;;;;16.30;6.03;;;3.40;99.90;;;;;;5017227;28;20026;-95
2021/11/23 01:14:45;;;;;;;14.25;7.00;;;3.40;99.90;;;;;;5037721;28;20022;-94
2021/11/23 01:17:14;;;;;;;17.90;6.43;;;3.30;99.90;;;;;;5020954;28;20057;-94
2021/11/23 01:19:45;;;;;;;13.80;5.85;;;3.30;99.90;;;;;;5021362;28;20022;-94
2021/11/23 01:22:13;;;;;;;11.77;5.10;;;3.30;99.90;;;;;;5004847;28;20025;-94
2021/11/23 01:24:51;;;;;;;11.95;4.57;;;3.30;99.90;;;;;;5021528;28;20566;-96
2021/11/23 01:27:23;;;;;;;13.38;6.22;;;3.30;99.90;;;;;;5036681;28;20068;-95
2021/11/23 01:29:51;;;;;;;11.73;5.45;;;3.30;99.90;;;;;;5019810;28;20046;-95
2021/11/23 01:32:20;;;;;;;10.73;5.32;;;3.30;99.90;;;;;;5019591;28;20077;-95
2021/11/23 01:35:16;;;;;;;11.02;4.90;;;3.30;99.90;;;;;;5018615;28;20030;-95
2021/11/23 01:37:47;;;;;;;11.45;4.70;;;3.30;99.90;;;;;;5013596;28;20057;-95
2021/11/23 01:40:15;;;;;;;;;;;3.30;99.90;;;;;;5000390;28;20022;-96
2021/11/23 01:42:43;;;;;;;9.07;4.97;;;3.40;99.90;;;;;;5014182;28;19928;-95
2021/11/23 01:45:11;;;;;;;10.40;4.40;;;3.30;99.90;;;;;;5014606;28;20042;-94
2021/11/23 01:47:39;;;;;;;9.80;3.90;;;3.40;99.90;;;;;;5013784;28;20034;-94
2021/11/23 01:50:07;;;;;;;13.23;3.88;;;3.40;99.90;;;;;;5012879;28;20046;-95
2021/11/23 01:52:34;;;;;;;6.55;3.75;;;3.40;99.90;;;;;;5013643;28;20033;-94
2021/11/23 01:55:02;;;;;;;10.15;3.92;;;3.30;99.90;;;;;;5009987;28;20034;-95
2021/11/23 01:57:28;;;;;;;9.48;4.53;;;3.30;99.90;;;;;;5009519;28;20054;-94
2021/11/23 01:59:54;;;;;;;11.38;4.28;;;3.30;99.90;;;;;;5014413;28;20029;-94
2021/11/23 02:02:20;;;;;;;9.02;4.18;;;3.30;99.90;;;;;;5013033;28;20034;-95
2021/11/23 02:04:46;;;;;;;10.73;3.70;;;3.30;99.90;;;;;;5007362;28;20044;-94
2021/11/23 02:07:17;;;;;;;8.05;3.58;;;3.30;99.90;;;;;;5003836;28;20514;-94
2021/11/23 02:09:42;;;;;;;9.52;3.92;;;3.30;99.90;;;;;;5002909;28;20037;-94
2021/11/23 02:12:10;;;;;;;7.43;3.10;;;3.30;99.90;;;;;;5000785;28;20121;-96
2021/11/23 02:14:36;;;;;;;11.30;3.55;;;3.30;99.90;;;;;;5003880;28;20521;-94
2021/11/23 02:17:05;;;;;;;11.75;4.07;;;3.30;99.90;;;;;;5011259;28;20030;-95
2021/11/23 02:19:31;;;;;;;10.55;3.35;;;3.30;99.90;;;;;;5035627;28;20034;-95
2021/11/23 02:22:01;;;;;;;10.45;3.25;;;3.40;99.90;;;;;;5017987;28;20046;-94
2021/11/23 02:24:29;;;;;;;8.38;3.60;;;3.40;99.90;;;;;;5008778;28;20036;-95
2021/11/23 02:26:56;;;;;;;9.23;3.50;;;3.40;99.90;;;;;;5007139;28;20030;-94
2021/11/23 02:29:21;;;;;;;7.82;3.05;;;3.40;99.90;;;;;;5008762;28;20061;-94
2021/11/23 02:31:49;;;;;;;10.38;2.92;;;3.40;99.90;;;;;;5004437;28;20064;-94
2021/11/23 02:34:15;;;;;;;10.30;3.05;;;3.50;99.90;;;;;;5004157;28;20044;-95
2021/11/23 02:36:41;;;;;;;11.20;3.28;;;3.70;99.90;;;;;;5002101;28;20057;-94
2021/11/23 02:39:07;;;;;;;9.25;3.38;;;3.80;99.90;;;;;;5000857;28;20392;-94
2021/11/23 02:41:35;;;;;;;15.73;3.90;;;4.00;99.90;;;;;;4999526;28;20045;-94
2021/11/23 02:44:02;;;;;;;12.82;3.80;;;4.00;99.90;;;;;;5000802;28;20038;-94
2021/11/23 02:46:30;;;;;;;7.82;3.97;;;4.10;99.90;;;;;;5015374;28;20113;-94
2021/11/23 02:48:56;;;;;;;10.68;3.38;;;4.00;99.90;;;;;;4997692;28;20050;-94
2021/11/23 02:51:23;;;;;;;9.07;3.85;;;4.00;99.90;;;;;;5005109;28;20034;-95
2021/11/23 02:53:52;;;;;;;5.13;2.83;;;3.90;99.90;;;;;;5009504;28;20026;-94
2021/11/23 02:56:20;;;;;;;5.57;3.00;;;3.90;99.90;;;;;;5011290;28;20030;-96
2021/11/23 02:58:49;;;;;;;5.97;2.80;;;3.90;99.90;;;;;;5005470;28;20045;-95
2021/11/23 03:01:20;;;;;;;5.07;2.92;;;3.90;99.90;;;;;;5007968;28;20033;-95
2021/11/23 03:03:51;;;;;;;5.70;2.60;;;3.90;99.90;;;;;;5005005;28;20084;-94
2021/11/23 03:06:20;;;;;;;7.28;2.97;;;3.90;99.90;;;;;;5008307;28;20068;-95
2021/11/23 03:08:49;;;;;;;9.07;3.28;;;3.90;99.90;;;;;;5011496;28;20068;-95
2021/11/23 03:11:17;;;;;;;7.47;3.05;;;3.90;99.90;;;;;;5011964;28;20029;-95
2021/11/23 03:13:44;;;;;;;7.78;3.05;;;3.90;99.90;;;;;;5014161;28;20034;-95
2021/11/23 03:16:14;;;;;;;10.88;3.40;;;4.00;99.90;;;;;;5017471;28;20034;-95
2021/11/23 03:18:43;;;;;;;6.72;2.97;;;4.00;99.90;;;;;;4997515;28;20042;-94
2021/11/23 03:21:10;;;;;;;6.63;2.97;;;4.00;99.90;;;;;;5013995;28;20033;-95
2021/11/23 03:23:39;;;;;;;13.50;2.88;;;3.90;99.90;;;;;;5019811;28;20030;-95
2021/11/23 03:26:05;;;;;;;8.25;2.63;;;3.90;99.90;;;;;;5017833;28;20038;-95
2021/11/23 03:28:31;;;;;;;5.80;2.47;;;3.90;99.90;;;;;;5016799;28;20034;-94
2021/11/23 03:30:57;;;;;;;6.18;2.60;;;3.80;99.90;;;;;;5009594;28;20076;-95
2021/11/23 03:33:23;;;;;;;7.05;2.40;;;3.80;99.90;;;;;;5008874;28;20033;-95
2021/11/23 03:35:49;;;;;;;6.72;3.40;;;3.80;99.90;;;;;;5010580;28;20026;-95
2021/11/23 03:38:15;;;;;;;4.95;2.53;;;3.80;99.90;;;;;;5010909;28;20033;-94
2021/11/23 03:40:44;;;;;;;5.53;2.33;;;3.80;99.90;;;;;;5009741;28;20026;-95
2021/11/23 03:43:12;;;;;;;7.70;2.33;;;3.70;99.90;;;;;;5007084;28;20049;-95
2021/11/23 03:45:39;;;;;;;6.80;2.88;;;3.80;99.90;;;;;;5006333;28;20022;-95
2021/11/23 03:48:06;;;;;;;7.63;3.08;;;3.80;99.90;;;;;;5005745;28;20349;-94
2021/11/23 03:50:32;;;;;;;7.72;2.53;;;3.70;99.90;;;;;;5004857;28;20133;-94
2021/11/23 03:52:58;;;;;;;4.90;2.45;;;3.70;99.90;;;;;;5006140;28;20053;-95
2021/11/23 03:55:25;;;;;;;4.90;2.30;;;3.70;99.90;;;;;;5015837;28;20030;-94
2021/11/23 03:57:52;;;;;;;3.88;2.15;;;3.60;99.90;;;;;;5006870;28;20022;-95
2021/11/23 04:00:21;;;;;;;6.63;2.17;;;3.50;99.90;;;;;;5009733;28;20026;-96
2021/11/23 04:02:49;;;;;;;7.95;2.42;;;3.50;99.90;;;;;;5015449;28;20038;-96
2021/11/23 04:05:20;;;;;;;4.72;2.10;;;3.40;99.90;;;;;;5031620;28;20093;-96
2021/11/23 04:07:46;;;;;;;5.38;2.83;;;3.40;99.90;;;;;;5016242;28;20046;-95
2021/11/23 04:10:15;;;;;;;6.47;2.42;;;3.40;99.90;;;;;;5020547;28;20056;-95
2021/11/23 04:12:41;;;;;;;6.40;2.10;;;3.30;99.90;;;;;;5020818;28;20085;-95
2021/11/23 04:15:11;;;;;;;4.75;2.40;;;3.30;99.90;;;;;;5021342;28;20026;-96
2021/11/23 04:17:58;;;;;;;20.17;4.85;;;3.30;99.90;;;;;;5021779;28;20024;-96
2021/11/23 04:20:24;;;;;;;5.75;1.98;;;3.30;99.90;;;;;;5007057;28;20030;-95
2021/11/23 04:22:51;;;;;;;3.72;1.65;;;3.20;99.90;;;;;;4993025;28;20038;-95
2021/11/23 04:25:19;;;;;;;12.05;4.22;;;3.20;99.90;;;;;;4995454;28;20038;-96
2021/11/23 04:27:52;;;;;;;5.28;2.40;;;3.20;99.90;;;;;;5011348;28;20030;-96
2021/11/23 04:30:21;;;;;;;4.57;2.28;;;3.20;99.90;;;;;;5020523;28;20077;-96
2021/11/23 04:32:55;;;;;;;3.07;2.10;;;3.10;99.90;;;;;;4986801;28;20026;-96
2021/11/23 04:35:25;;;;;;;2.80;1.95;;;3.10;99.90;;;;;;4992108;28;20026;-95
2021/11/23 04:38:00;;;;;;;5.32;2.25;;;3.10;99.90;;;;;;5013787;28;20101;-95
2021/11/23 04:40:31;;;;;;;2.33;1.60;;;3.00;99.90;;;;;;5035617;28;20038;-96
2021/11/23 04:43:21;;;;;;;7.07;2.50;;;3.10;99.90;;;;;;5017139;28;20053;-96
2021/11/23 04:46:08;;;;;;;2.95;1.77;;;3.00;99.90;;;;;;5022134;28;20090;-95
2021/11/23 04:48:40;;;;;;;3.80;2.00;;;3.10;99.90;;;;;;5001375;28;20022;-96
2021/11/23 04:51:06;;;;;;;4.55;2.10;;;3.10;99.90;;;;;;5013478;28;20494;-96
2021/11/23 04:53:32;;;;;;;5.88;2.10;;;3.10;99.90;;;;;;5005304;28;20030;-95
2021/11/23 04:55:58;;;;;;;7.55;1.98;;;3.00;99.90;;;;;;5008751;28;20029;-96
2021/11/23 04:58:24;;;;;;;7.00;1.88;;;3.10;99.90;;;;;;4987841;28;20057;-95
2021/11/23 05:00:50;;;;;;;4.07;1.50;;;3.00;99.90;;;;;;5006923;28;20064;-96
2021/11/23 05:03:16;;;;;;;3.72;1.90;;;3.00;99.90;;;;;;5002030;28;20038;-95
2021/11/23 05:05:42;;;;;;;6.72;2.45;;;3.00;99.90;;;;;;5010500;28;20076;-95
2021/11/23 05:08:14;;;;;;;2.67;1.92;;;3.10;99.90;;;;;;5017105;28;20030;-95
2021/11/23 05:10:40;;;;;;;6.35;2.40;;;3.10;99.90;;;;;;5017435;28;20032;-95
2021/11/23 05:13:09;;;;;;;3.53;2.17;;;3.20;99.90;;;;;;5009577;28;20038;-95
2021/11/23 05:15:35;;;;;;;6.32;3.00;;;3.30;99.90;;;;;;5004848;28;20089;-96
2021/11/23 05:18:01;;;;;;;5.88;2.15;;;3.20;99.90;;;;;;5005104;28;20072;-95
2021/11/23 05:20:27;;;;;;;4.93;2.53;;;3.20;99.90;;;;;;5004930;28;20022;-95
2021/11/23 05:22:53;;;;;;;6.05;2.45;;;3.20;99.90;;;;;;5004671;28;20054;-95
2021/11/23 05:25:19;;;;;;;6.68;2.45;;;3.10;99.90;;;;;;5002365;28;20062;-96
2021/11/23 05:27:45;;;;;;;5.03;2.75;;;3.10;99.90;;;;;;4998158;28;20105;-95
2021/11/23 05:30:11;;;;;;;5.20;2.10;;;3.00;99.90;;;;;;4998828;28;20031;-96
2021/11/23 05:32:39;;;;;;;5.82;2.67;;;2.90;99.90;;;;;;4982637;28;20034;-95
2021/11/23 05:35:05;;;;;;;4.97;2.42;;;2.90;99.90;;;;;;4998538;28;20023;-96
2021/11/23 05:37:31;;;;;;;3.85;1.80;;;2.90;99.90;;;;;;4999128;28;20041;-96
2021/11/23 05:39:57;;;;;;;4.32;1.42;;;2.90;99.90;;;;;;4999996;28;20058;-96
2021/11/23 05:42:24;;;;;;;3.00;1.73;;;2.90;99.90;;;;;;4999789;28;20054;-96
2021/11/23 05:44:50;;;;;;;5.28;1.75;;;3.00;99.90;;;;;;4997967;28;20047;-95
2021/11/23 05:47:15;;;;;;;6.13;2.30;;;3.00;99.90;;;;;;4999824;28;20121;-94
2021/11/23 05:49:42;;;;;;;7.93;2.42;;;3.00;99.90;;;;;;5008080;28;20037;-95
2021/11/23 05:52:08;;;;;;;5.15;2.17;;;3.00;99.90;;;;;;5007273;28;20133;-95
2021/11/23 05:54:34;;;;;;;5.10;2.13;;;3.00;99.90;;;;;;4999471;28;20026;-96
2021/11/23 05:57:01;;;;;;;7.43;2.63;;;3.00;99.90;;;;;;4997412;28;20346;-95
2021/11/23 05:59:27;;;;;;;6.15;2.88;;;2.90;99.90;;;;;;4997083;28;20395;-96
2021/11/23 06:01:52;;;;;;;9.98;3.70;;;2.90;99.90;;;;;;4995976;28;20129;-96
2021/11/23 06:04:18;;;;;;;11.93;2.97;;;2.90;99.90;;;;;;4997621;28;20469;-95
2021/11/23 06:06:47;;;;;;;4.55;2.55;;;2.80;99.90;;;;;;4997834;28;20097;-95
2021/11/23 06:09:47;;;;;;;5.38;2.88;;;2.80;99.90;;;;;;5011243;28;20030;-95
2021/11/23 06:14:49;;;;;;;7.20;3.45;;;3.00;99.90;;;;;;5036609;23;20047;-95
2021/11/23 06:17:15;;;;;;;9.05;3.33;;;3.00;99.90;;;;;;4947899;29;20054;-94
2021/11/23 06:19:41;;;;;;;10.98;3.70;;;3.10;99.90;;;;;;4945173;29;20027;-95
2021/11/23 06:22:07;;;;;;;9.30;3.42;;;3.20;99.90;;;;;;4945309;29;20023;-94
2021/11/23 06:24:33;;;;;;;7.22;3.88;;;3.30;99.90;;;;;;4948897;29;20035;-94
2021/11/23 06:26:59;;;;;;;10.65;5.07;;;3.30;99.90;;;;;;4987083;28;20117;-94
2021/11/23 06:29:36;;;;;;;7.43;4.20;;;3.40;99.90;;;;;;4978970;28;20042;-95
2021/11/23 06:32:04;;;;;;;15.00;4.85;;;3.60;99.90;;;;;;4980960;28;20027;-94
2021/11/23 06:34:30;;;;;;;9.70;4.95;;;3.70;99.90;;;;;;4979442;28;20027;-95
2021/11/23 06:36:58;;;;;;;10.55;5.05;;;3.80;99.90;;;;;;4973051;28;20027;-94
2021/11/23 06:39:24;;;;;;;8.85;5.32;;;4.00;99.90;;;;;;4973738;28;20043;-93
2021/11/23 06:41:55;;;;;;;10.35;5.65;;;4.20;99.90;;;;;;4974878;28;20039;-96
2021/11/23 06:44:21;;;;;;;11.18;6.22;;;4.50;99.90;;;;;;4979521;28;20104;-95
2021/11/23 06:46:50;;;;;;;9.95;5.63;;;4.70;99.90;;;;;;4979644;28;20022;-95
2021/11/23 06:49:21;;;;;;;13.15;5.68;;;4.80;99.90;;;;;;4977665;28;20034;-96
2021/11/23 06:51:51;;;;;;;9.88;5.25;;;5.00;99.90;;;;;;4992587;28;20076;-95
2021/11/23 06:54:18;;;;;;;9.70;5.38;;;5.20;99.90;;;;;;4976633;28;20054;-96
2021/11/23 06:56:44;;;;;;;9.80;5.82;;;5.20;99.90;;;;;;4977427;28;20213;-95
2021/11/23 06:59:10;;;;;;;11.50;6.10;;;5.40;99.90;;;;;;4976554;28;20023;-96
2021/11/23 07:01:37;;;;;;;10.73;6.07;;;5.50;99.90;;;;;;4992315;28;20027;-95
2021/11/23 07:04:14;;;;;;;12.77;5.93;;;5.60;99.90;;;;;;4976619;28;20065;-96
2021/11/23 07:06:49;;;;;;;9.05;6.25;;;5.60;99.90;;;;;;4967195;28;20030;-95
2021/11/23 07:09:15;;;;;;;8.98;5.80;;;5.70;99.90;;;;;;4981283;28;20090;-95
2021/11/23 07:11:43;;;;;;;12.13;6.03;;;5.70;99.90;;;;;;4970834;28;20054;-94
2021/11/23 07:14:11;;;;;;;13.20;6.18;;;5.80;99.90;;;;;;4988197;28;20053;-95
2021/11/23 07:16:37;;;;;;;10.02;5.15;;;5.80;99.90;;;;;;4998400;28;20042;-95
2021/11/23 07:19:06;;;;;;;7.15;4.47;;;5.80;99.90;;;;;;4991379;28;20030;-94
2021/11/23 07:21:32;;;;;;;12.48;5.57;;;5.80;99.90;;;;;;4988943;28;20034;-96
2021/11/23 07:23:59;;;;;;;9.63;4.47;;;5.70;99.90;;;;;;4985812;28;20121;-95
2021/11/23 07:26:29;;;;;;;12.32;6.05;;;5.70;99.90;;;;;;4985556;28;20034;-96
2021/11/23 07:29:00;;;;;;;12.95;8.10;;;5.60;99.90;;;;;;4985305;28;20034;-95
2021/11/23 07:31:26;;;;;;;16.70;7.43;;;5.60;99.90;;;;;;5002541;28;20069;-95
2021/11/23 07:33:53;;;;;;;14.20;7.47;;;5.70;99.90;;;;;;4990231;28;20039;-95
2021/11/23 07:36:19;;;;;;;11.40;6.72;;;5.70;99.90;;;;;;4989010;28;20046;-96
2021/11/23 07:38:50;;;;;;;11.90;6.65;;;5.70;99.90;;;;;;4986112;28;20035;-96
2021/11/23 07:41:15;;;;;;;15.25;8.02;;;5.80;99.90;;;;;;4985430;28;20026;-95
2021/11/23 07:43:41;;;;;;;16.35;7.82;;;5.80;99.90;;;;;;4985001;28;20041;-93
2021/11/23 07:46:13;;;;;;;13.60;7.88;;;5.90;99.90;;;;;;4985516;28;20052;-95
2021/11/23 07:48:39;;;;;;;11.30;6.82;;;5.90;99.90;;;;;;4990512;28;20038;-93
2021/11/23 07:51:05;;;;;;;11.75;6.82;;;6.00;99.90;;;;;;4990398;28;20026;-95
2021/11/23 07:53:31;;;;;;;11.90;7.10;;;6.00;99.90;;;;;;4988405;28;20031;-94
2021/11/23 07:55:57;;;;;;;9.82;5.95;;;6.00;99.90;;;;;;4987713;28;20104;-94
2021/11/23 07:58:23;;;;;;;11.23;5.68;;;6.00;99.90;;;;;;4983512;28;20129;-95
2021/11/23 08:00:49;;;;;;;10.32;5.63;;;6.00;99.90;;;;;;4980380;28;20045;-93
2021/11/23 08:03:15;;;;;;;9.90;6.25;;;6.10;99.90;;;;;;4983935;28;20088;-94
2021/11/23 08:05:41;;;;;;;11.00;5.85;;;6.10;99.90;;;;;;4984443;28;20022;-94
2021/11/23 08:08:10;;;;;;;9.68;5.80;;;6.10;99.90;;;;;;4982027;28;20155;-93
2021/11/23 08:10:42;;;;;;;11.43;5.78;;;6.10;99.90;;;;;;4980899;28;20184;-95
2021/11/23 08:16:43;;;;;;;11.25;6.30;;;6.20;99.90;;;;;;4978077;28;20049;-95
2021/11/23 08:19:29;;;;;;;10.57;6.55;;;6.20;99.90;;;;;;4983556;28;20058;-95
2021/11/23 08:22:11;;;;;;;9.80;5.68;;;6.20;99.90;;;;;;4995474;28;20034;-95
2021/11/23 08:24:39;;;;;;;7.93;6.15;;;6.20;99.90;;;;;;4956193;29;20054;-95
2021/11/23 08:27:05;;;;;;;10.38;6.65;;;6.20;99.90;;;;;;4960025;28;20041;-95
2021/11/23 08:32:13;;;;;;;12.07;5.72;;;6.30;99.90;;;;;;5070523;23;20127;-94
2021/11/23 08:34:39;;;;;;;9.43;5.32;;;6.30;99.90;;;;;;4962619;28;20038;-94
2021/11/23 08:37:07;;;;;;;7.95;5.18;;;6.30;99.90;;;;;;4966345;28;20490;-95
2021/11/23 08:39:34;;;;;;;7.60;5.38;;;6.30;99.90;;;;;;4970637;28;20085;-94
2021/11/23 08:42:00;;;;;;;8.82;5.82;;;6.30;99.90;;;;;;4968414;28;20035;-94
2021/11/23 08:44:26;;;;;;;7.57;5.47;;;6.30;99.90;;;;;;4968994;28;20046;-95
2021/11/23 08:46:52;;;;;;;11.45;5.63;;;6.40;99.90;;;;;;4968386;28;20031;-94
2021/11/23 08:49:18;;;;;;;8.45;6.05;;;6.40;99.90;;;;;;4971766;28;20038;-93
2021/11/23 08:51:44;;;;;;;10.80;6.07;;;6.40;99.90;;;;;;4971530;28;20057;-94
2021/11/23 08:54:10;;;;;;;11.20;5.95;;;6.40;99.90;;;;;;4970333;28;20026;-94
2021/11/23 08:56:38;;;;;;;11.68;5.95;;;6.40;99.90;;;;;;4988378;28;20489;-94
2021/11/23 08:59:10;;;;;;;10.23;6.57;;;6.40;99.90;;;;;;4964520;28;20329;-94
2021/11/23 09:01:36;;;;;;;11.00;5.55;;;6.40;99.90;;;;;;4961790;28;20041;-94
2021/11/23 09:04:04;;;;;;;9.45;5.75;;;6.40;99.90;;;;;;4973437;28;20125;-94
2021/11/23 09:06:36;;;;;;;11.63;6.45;;;6.50;99.90;;;;;;4957421;28;20116;-93
2021/11/23 09:09:05;;;;;;;7.35;5.65;;;6.50;99.90;;;;;;4967997;28;20034;-95
2021/11/23 09:11:38;;;;;;;10.13;6.22;;;6.50;99.90;;;;;;4984355;28;20027;-94
2021/11/23 09:14:05;;;;;;;12.57;5.47;;;6.50;99.90;;;;;;4968372;28;20022;-95
2021/11/23 09:16:43;;;;;;;10.80;6.07;;;6.50;99.90;;;;;;4955354;28;20027;-95
2021/11/23 09:19:11;;;;;;;13.48;6.68;;;6.50;99.90;;;;;;4985502;28;20038;-96
2021/11/23 09:21:45;;;;;;;8.70;5.35;;;6.50;99.90;;;;;;4991456;28;20074;-95
2021/11/23 09:24:30;;;;;;;9.27;6.20;;;6.60;99.90;;;;;;4988507;28;20042;-95
2021/11/23 09:27:05;;;;;;;10.68;6.25;;;6.60;99.90;;;;;;4996583;28;20031;-94
2021/11/23 09:29:36;;;;;;;12.18;6.95;;;6.60;99.90;;;;;;4980245;28;20051;-95
2021/11/23 09:32:07;;;;;;;10.35;6.38;;;6.60;99.90;;;;;;4981214;28;20100;-95
2021/11/23 09:34:36;;;;;;;10.98;7.28;;;6.60;99.90;;;;;;4985356;28;20022;-94
2021/11/23 09:37:05;;;;;;;8.02;6.00;;;6.70;99.90;;;;;;4986659;28;20026;-95
2021/11/23 09:39:31;;;;;;;9.25;6.65;;;6.70;99.90;;;;;;5001046;28;20316;-94
2021/11/23 09:42:01;;;;;;;9.50;6.40;;;6.70;99.90;;;;;;4978739;28;20022;-95
2021/11/23 09:44:27;;;;;;;9.70;6.55;;;6.70;99.90;;;;;;4978123;28;20038;-94
2021/11/23 09:46:53;;;;;;;10.43;6.45;;;6.70;99.90;;;;;;4985665;28;20030;-95
2021/11/23 09:49:22;;;;;;;7.93;6.10;;;6.70;99.90;;;;;;4983893;28;20026;-94
2021/11/23 09:51:48;;;;;;;10.40;5.45;;;6.80;99.90;;;;;;4985350;28;20039;-96
2021/11/23 09:54:14;;;;;;;12.68;5.22;;;6.70;99.90;;;;;;4981900;28;20194;-95
2021/11/23 09:56:44;;;;;;;8.73;4.72;;;6.80;99.90;;;;;;4980236;28;20030;-95
2021/11/23 09:59:15;;;;;;;5.60;4.00;;;6.80;99.90;;;;;;4969664;28;20031;-94
2021/11/23 10:02:02;;;;;;;5.95;4.70;;;6.80;99.90;;;;;;4988794;28;20027;-94
2021/11/23 10:04:54;;;;;;;9.20;4.25;;;6.90;99.90;;;;;;4988331;28;20027;-95
2021/11/23 10:07:26;;;;;;;9.48;4.50;;;6.90;99.90;;;;;;4987820;28;20038;-94
2021/11/23 10:09:53;;;;;;;5.90;4.13;;;6.90;99.90;;;;;;4982959;28;20076;-94
2021/11/23 10:12:42;;;;;;;6.65;4.35;;;6.90;99.90;;;;;;4985592;28;20037;-94
2021/11/23 10:15:20;;;;;;;7.60;4.30;;;7.00;99.90;;;;;;4980202;28;20030;-94
2021/11/23 10:17:51;;;;;;;7.15;4.18;;;7.00;99.90;;;;;;4983680;28;20118;-94
2021/11/23 10:20:31;;;;;;;5.75;3.80;;;7.00;99.90;;;;;;4996040;28;20030;-93
2021/11/23 10:23:18;;;;;;;6.82;4.38;;;7.10;99.90;;;;;;4977814;28;20027;-95
2021/11/23 10:25:47;;;;;;;4.88;4.13;;;7.10;99.90;;;;;;4979180;28;20026;-95
2021/11/23 10:28:14;;;;;;;5.70;3.85;;;7.10;99.90;;;;;;4987653;28;20034;-94
2021/11/23 10:30:45;;;;;;;8.93;4.80;;;7.10;99.90;;;;;;4987463;28;20111;-95
2021/11/23 10:33:11;;;;;;;6.00;4.07;;;7.20;99.90;;;;;;4977989;28;20037;-95
2021/11/23 10:35:59;;;;;;;6.10;4.65;;;7.20;99.90;;;;;;4975969;28;20034;-95
2021/11/23 10:38:28;;;;;;;8.65;4.10;;;7.20;99.90;;;;;;4980910;28;20027;-94
2021/11/23 10:40:58;;;;;;;5.85;4.25;;;7.20;99.90;;;;;;4977094;28;20050;-94
2021/11/23 10:43:24;;;;;;;5.85;3.97;;;7.30;99.90;;;;;;4971864;28;20043;-95
2021/11/23 10:45:55;;;;;;;4.75;3.85;;;7.30;99.90;;;;;;4972658;28;20151;-94
2021/11/23 10:48:25;;;;;;;7.57;3.88;;;7.30;99.90;;;;;;4970597;28;20027;-95
2021/11/23 10:51:12;;;;;;;5.60;3.28;;;7.30;99.90;;;;;;4975329;28;20040;-94
2021/11/23 10:53:42;;;;;;;4.82;4.05;;;7.40;99.90;;;;;;4975630;28;20038;-95
2021/11/23 10:56:23;;;;;;;4.90;3.42;;;7.40;99.90;;;;;;4974338;28;20586;-95
2021/11/23 10:58:50;;;;;;;7.63;3.38;;;7.50;99.90;;;;;;4976075;28;20090;-94
2021/11/23 11:01:19;;;;;;;7.25;3.30;;;7.50;99.90;;;;;;4975914;28;20030;-93
2021/11/23 11:03:53;;;;;;;5.13;3.15;;;7.60;99.90;;;;;;4978618;28;20026;-94
2021/11/23 11:06:31;;;;;;;5.30;3.08;;;7.60;99.90;;;;;;4979696;28;20018;-94
2021/11/23 11:08:58;;;;;;;3.28;2.97;;;7.70;99.90;;;;;;4979920;28;20503;-94
2021/11/23 11:11:29;;;;;;;4.95;3.10;;;7.70;99.90;;;;;;4980716;28;20140;-95
2021/11/23 11:14:07;;;;;;;;;;;7.80;99.90;;;;;;4980459;28;20132;-95
2021/11/23 11:16:46;;;;;;;6.30;2.90;;;7.80;99.90;;;;;;4975370;28;19996;-94
2021/11/23 11:19:39;;;;;;;3.60;2.92;;;7.90;99.90;;;;;;4968248;28;20046;-94
2021/11/23 11:22:10;;;;;;;4.78;3.22;;;7.90;99.90;;;;;;4980952;28;20022;-95
2021/11/23 11:27:30;;;;;;;6.70;2.75;;;7.90;99.90;;;;;;4996408;28;19982;-94
2021/11/23 11:30:29;;;;;;;3.00;2.35;;;8.00;99.90;;;;;;4979996;28;20032;-93
2021/11/23 11:33:06;;;;;;;3.90;2.45;;;8.10;99.90;;;;;;4982142;28;20039;-95
2021/11/23 11:35:47;;;;;;;4.22;2.30;;;8.10;99.90;;;;;;5008998;28;20019;-93
2021/11/23 11:38:28;;;;;;;2.97;2.47;;;8.10;99.90;;;;;;4977730;28;20061;-94
2021/11/23 11:41:04;;;;;;;4.68;2.67;;;8.30;99.90;;;;;;4980468;28;20030;-94
2021/11/23 11:43:32;;;;;;;3.60;2.80;;;8.30;99.90;;;;;;4979391;28;20104;-95
2021/11/23 11:45:58;;;;;;;3.20;2.60;;;8.40;99.90;;;;;;4977884;28;20023;-94
2021/11/23 11:48:33;;;;;;;2.30;2.00;;;8.50;99.90;;;;;;4976047;28;20094;-93
2021/11/23 11:51:27;;;;;;;3.42;2.25;;;8.50;99.90;;;;;;4995634;28;20080;-94
2021/11/23 11:53:58;;;;;;;2.75;1.80;;;8.80;99.90;;;;;;5008080;28;20034;-95
2021/11/23 11:56:39;;;;;;;1.42;1.30;;;9.40;99.90;;;;;;4964042;28;20027;-95
2021/11/23 11:59:18;;;;;;;1.85;1.20;;;10.10;99.90;;;;;;4994684;28;20086;-95
2021/11/23 12:01:56;;;;;;;1.33;1.17;;;10.60;99.90;;;;;;5009981;28;20022;-95
2021/11/23 12:04:26;;;;;;;1.38;1.20;;;10.80;99.90;;;;;;4979816;28;20050;-95
2021/11/23 12:07:08;;;;;;;2.93;1.10;;;10.80;99.90;;;;;;4983712;28;20365;-95
2021/11/23 12:09:42;;;;;;;2.05;1.10;;;10.80;99.90;;;;;;4979507;28;20045;-95
2021/11/23 12:12:11;;;;;;;0.80;0.80;;;10.60;99.90;;;;;;4978069;28;20081;-95
2021/11/23 12:14:52;;;;;;;1.83;1.20;;;10.40;99.90;;;;;;4981490;28;20058;-94
2021/11/23 12:18:02;;;;;;;;;;;;;;;;;;;;;
2021/11/23 12:20:48;;;;;;;2.05;0.95;;;10.10;99.90;;;;;;4990730;28;20037;-95
2021/11/23 12:23:48;;;;;;;1.15;0.95;;;10.00;99.90;;;;;;4977834;28;20073;-95
2021/11/23 12:26:29;;;;;;;1.35;1.25;;;9.90;99.90;;;;;;4979829;28;20034;-95
2021/11/23 12:29:13;;;;;;;1.55;1.30;;;9.90;99.90;;;;;;4977670;28;20023;-94
2021/11/23 12:32:32;;;;;;;2.10;1.67;;;9.80;99.90;;;;;;4984286;28;20134;-95
2021/11/23 12:35:05;;;;;;;6.60;1.80;;;9.80;99.90;;;;;;4974968;28;20058;-95
2021/11/23 12:37:43;;;;;;;2.78;1.30;;;9.70;99.90;;;;;;4974130;28;20046;-94
2021/11/23 12:40:20;;;;;;;2.92;1.20;;;9.70;99.90;;;;;;4976504;28;20089;-95
2021/11/23 12:42:55;;;;;;;2.33;1.30;;;9.70;99.90;;;;;;4976819;28;20030;-95
2021/11/23 12:45:41;;;;;;;2.28;1.55;;;9.60;99.90;;;;;;4979578;28;20030;-96
2021/11/23 12:48:28;;;;;;;2.38;1.20;;;9.60;99.90;;;;;;4982264;28;20079;-95
2021/11/23 12:50:55;;;;;;;2.55;1.25;;;9.50;99.90;;;;;;4976958;28;20022;-94
2021/11/23 12:53:23;;;;;;;1.55;1.40;;;9.50;99.90;;;;;;4986783;28;20097;-95
2021/11/23 12:55:58;;;;;;;3.08;1.23;;;9.50;99.90;;;;;;4991437;28;20069;-94
2021/11/23 12:58:37;;;;;;;1.58;1.45;;;9.50;99.90;;;;;;4990330;28;20026;-94
2021/11/23 13:01:03;;;;;;;1.30;1.13;;;9.50;99.90;;;;;;4979371;28;20019;-94
2021/11/23 13:03:30;;;;;;;4.22;1.17;;;9.50;99.90;;;;;;4978260;28;20027;-94
2021/11/23 13:06:07;;;;;;;2.22;1.50;;;9.60;99.90;;;;;;4984669;28;20018;-93
2021/11/23 13:08:35;;;;;;;1.83;1.50;;;9.60;99.90;;;;;;4982363;28;20022;-94
2021/11/23 13:11:20;;;;;;;2.00;1.30;;;9.70;99.90;;;;;;4979390;28;20053;-94
2021/11/23 13:13:46;;;;;;;1.15;1.05;;;9.90;99.90;;;;;;4971824;28;20018;-94
2021/11/23 13:16:12;;;;;;;4.15;1.25;;;10.30;99.90;;;;;;4974751;28;20034;-94
2021/11/23 13:18:38;;;;;;;3.83;1.63;;;10.60;99.90;;;;;;4973657;28;20022;-95
2021/11/23 13:21:06;;;;;;;8.00;1.20;;;10.80;99.90;;;;;;4970723;28;20078;-95
2021/11/23 13:23:39;;;;;;;1.23;1.13;;;10.90;99.90;;;;;;4971039;28;20049;-94
2021/11/23 13:26:14;;;;;;;1.20;1.10;;;10.90;99.90;;;;;;4973335;28;20037;-95
2021/11/23 13:29:00;;;;;;;2.47;1.42;;;11.00;99.90;;;;;;4974687;28;20041;-95